Terminal Aerodrome Forecast
Issued by NWS Grand Forks, ND

Home | Current Version | Previous Version | Graphics & Text | Print | Product List | Glossary On
Versions: 1 2 3 4 5 6 7 8 9 10 11 12 13 14 15 16 17 18 19 20 21 22
000
FTUS43 KFGF 242100 AAB
TAFGFK
TAF AMD
KGFK 242104Z 2421/2518 01012KT P6SM OVC025
     FM250000 01013KT 5SM -SN BR OVC015
     FM251000 36010KT P6SM BKN025=

USA.gov is the U.S. government's official web portal to all federal, state and local government web resources and services.